sensor_id;sensor_type;location;lat;lon;timestamp;P1;durP1;ratioP1;P2;durP2;ratioP2
22284;SDS011;11311;52.192;20.900;2023-08-17T00:00:54;15.13;;;11.40;;
22284;SDS011;11311;52.192;20.900;2023-08-17T00:03:23;13.40;;;11.63;;
22284;SDS011;11311;52.192;20.900;2023-08-17T00:05:52;17.58;;;11.30;;
22284;SDS011;11311;52.192;20.900;2023-08-17T00:08:21;13.32;;;11.93;;
22284;SDS011;11311;52.192;20.900;2023-08-17T00:10:49;23.88;;;12.27;;
22284;SDS011;11311;52.192;20.900;2023-08-17T00:13:19;13.30;;;11.85;;
22284;SDS011;11311;52.192;20.900;2023-08-17T00:18:17;13.02;;;10.85;;
22284;SDS011;11311;52.192;20.900;2023-08-17T00:20:47;17.25;;;12.77;;
22284;SDS011;11311;52.192;20.900;2023-08-17T00:23:16;13.55;;;11.30;;
22284;SDS011;11311;52.192;20.900;2023-08-17T00:25:44;17.13;;;12.07;;
22284;SDS011;11311;52.192;20.900;2023-08-17T00:28:14;15.77;;;10.77;;
22284;SDS011;11311;52.192;20.900;2023-08-17T00:30:45;13.07;;;10.80;;
22284;SDS011;11311;52.192;20.900;2023-08-17T00:33:14;14.02;;;12.43;;
22284;SDS011;11311;52.192;20.900;2023-08-17T00:35:43;20.02;;;11.63;;
22284;SDS011;11311;52.192;20.900;2023-08-17T00:38:12;12.25;;;11.00;;
22284;SDS011;11311;52.192;20.900;2023-08-17T00:40:41;15.50;;;11.65;;
22284;SDS011;11311;52.192;20.900;2023-08-17T00:43:10;19.05;;;12.15;;
22284;SDS011;11311;52.192;20.900;2023-08-17T00:45:39;13.60;;;11.27;;
22284;SDS011;11311;52.192;20.900;2023-08-17T00:48:11;16.67;;;13.55;;
22284;SDS011;11311;52.192;20.900;2023-08-17T00:50:41;20.90;;;13.68;;
22284;SDS011;11311;52.192;20.900;2023-08-17T00:53:10;14.32;;;12.25;;
22284;SDS011;11311;52.192;20.900;2023-08-17T00:55:40;17.40;;;12.52;;
22284;SDS011;11311;52.192;20.900;2023-08-17T00:58:09;13.90;;;12.50;;
22284;SDS011;11311;52.192;20.900;2023-08-17T01:00:40;13.73;;;12.38;;
22284;SDS011;11311;52.192;20.900;2023-08-17T01:03:09;13.43;;;12.23;;
22284;SDS011;11311;52.192;20.900;2023-08-17T01:05:39;13.88;;;12.45;;
22284;SDS011;11311;52.192;20.900;2023-08-17T01:08:08;12.98;;;11.55;;
22284;SDS011;11311;52.192;20.900;2023-08-17T01:10:40;14.77;;;11.68;;
22284;SDS011;11311;52.192;20.900;2023-08-17T01:13:21;14.65;;;12.13;;
22284;SDS011;11311;52.192;20.900;2023-08-17T01:15:56;15.52;;;11.85;;
22284;SDS011;11311;52.192;20.900;2023-08-17T01:18:28;18.48;;;12.35;;
22284;SDS011;11311;52.192;20.900;2023-08-17T01:21:02;19.92;;;13.35;;
22284;SDS011;11311;52.192;20.900;2023-08-17T01:23:34;16.10;;;11.73;;
22284;SDS011;11311;52.192;20.900;2023-08-17T01:26:03;15.65;;;12.00;;
22284;SDS011;11311;52.192;20.900;2023-08-17T01:28:32;13.80;;;11.82;;
22284;SDS011;11311;52.192;20.900;2023-08-17T01:31:03;16.05;;;11.73;;
22284;SDS011;11311;52.192;20.900;2023-08-17T01:33:37;13.00;;;11.70;;
22284;SDS011;11311;52.192;20.900;2023-08-17T01:36:12;17.73;;;12.20;;
22284;SDS011;11311;52.192;20.900;2023-08-17T01:38:47;14.07;;;12.50;;
22284;SDS011;11311;52.192;20.900;2023-08-17T01:41:19;16.58;;;12.75;;
22284;SDS011;11311;52.192;20.900;2023-08-17T01:43:49;14.45;;;12.85;;
22284;SDS011;11311;52.192;20.900;2023-08-17T01:46:19;14.30;;;12.77;;
22284;SDS011;11311;52.192;20.900;2023-08-17T01:48:48;20.00;;;13.60;;
22284;SDS011;11311;52.192;20.900;2023-08-17T01:51:17;14.25;;;11.13;;
22284;SDS011;11311;52.192;20.900;2023-08-17T01:53:49;20.10;;;12.40;;
22284;SDS011;11311;52.192;20.900;2023-08-17T01:56:18;15.10;;;13.02;;
22284;SDS011;11311;52.192;20.900;2023-08-17T01:58:46;12.63;;;11.50;;
22284;SDS011;11311;52.192;20.900;2023-08-17T02:01:15;15.00;;;11.82;;
22284;SDS011;11311;52.192;20.900;2023-08-17T02:03:44;19.25;;;12.75;;
22284;SDS011;11311;52.192;20.900;2023-08-17T02:06:13;14.40;;;12.25;;
22284;SDS011;11311;52.192;20.900;2023-08-17T02:08:43;13.60;;;12.20;;
22284;SDS011;11311;52.192;20.900;2023-08-17T02:11:15;17.45;;;12.73;;
22284;SDS011;11311;52.192;20.900;2023-08-17T02:13:45;14.63;;;12.98;;
22284;SDS011;11311;52.192;20.900;2023-08-17T02:16:14;20.25;;;11.90;;
22284;SDS011;11311;52.192;20.900;2023-08-17T02:18:43;14.73;;;12.73;;
22284;SDS011;11311;52.192;20.900;2023-08-17T02:21:12;16.77;;;12.93;;
22284;SDS011;11311;52.192;20.900;2023-08-17T02:23:41;14.43;;;12.98;;
22284;SDS011;11311;52.192;20.900;2023-08-17T02:26:10;17.40;;;12.60;;
22284;SDS011;11311;52.192;20.900;2023-08-17T02:28:40;17.83;;;12.85;;
22284;SDS011;11311;52.192;20.900;2023-08-17T02:33:37;15.18;;;12.52;;
22284;SDS011;11311;52.192;20.900;2023-08-17T02:36:08;15.35;;;12.73;;
22284;SDS011;11311;52.192;20.900;2023-08-17T02:38:37;19.52;;;13.02;;
22284;SDS011;11311;52.192;20.900;2023-08-17T02:41:07;13.80;;;12.27;;
22284;SDS011;11311;52.192;20.900;2023-08-17T02:43:35;16.63;;;12.30;;
22284;SDS011;11311;52.192;20.900;2023-08-17T02:46:05;15.40;;;12.07;;
22284;SDS011;11311;52.192;20.900;2023-08-17T02:48:37;16.08;;;12.82;;
22284;SDS011;11311;52.192;20.900;2023-08-17T02:51:06;20.15;;;13.02;;
22284;SDS011;11311;52.192;20.900;2023-08-17T02:53:35;18.70;;;13.25;;
22284;SDS011;11311;52.192;20.900;2023-08-17T02:56:03;14.90;;;12.68;;
22284;SDS011;11311;52.192;20.900;2023-08-17T02:58:32;20.27;;;13.30;;
22284;SDS011;11311;52.192;20.900;2023-08-17T03:01:02;15.77;;;12.48;;
22284;SDS011;11311;52.192;20.900;2023-08-17T03:03:33;18.92;;;13.35;;
22284;SDS011;11311;52.192;20.900;2023-08-17T03:06:02;17.85;;;13.55;;
22284;SDS011;11311;52.192;20.900;2023-08-17T03:08:31;17.08;;;13.40;;
22284;SDS011;11311;52.192;20.900;2023-08-17T03:11:00;17.48;;;11.73;;
22284;SDS011;11311;52.192;20.900;2023-08-17T03:13:28;15.07;;;12.20;;
22284;SDS011;11311;52.192;20.900;2023-08-17T03:15:57;23.50;;;14.73;;
22284;SDS011;11311;52.192;20.900;2023-08-17T03:18:26;14.20;;;12.75;;
22284;SDS011;11311;52.192;20.900;2023-08-17T03:20:56;16.42;;;13.93;;
22284;SDS011;11311;52.192;20.900;2023-08-17T03:23:25;16.77;;;12.93;;
22284;SDS011;11311;52.192;20.900;2023-08-17T03:25:54;18.75;;;12.77;;
22284;SDS011;11311;52.192;20.900;2023-08-17T03:28:23;21.08;;;12.85;;
22284;SDS011;11311;52.192;20.900;2023-08-17T03:30:54;17.38;;;14.20;;
22284;SDS011;11311;52.192;20.900;2023-08-17T03:33:24;15.25;;;13.65;;
22284;SDS011;11311;52.192;20.900;2023-08-17T03:35:53;17.95;;;13.43;;
22284;SDS011;11311;52.192;20.900;2023-08-17T03:38:26;16.08;;;13.35;;
22284;SDS011;11311;52.192;20.900;2023-08-17T03:40:55;17.60;;;13.32;;
22284;SDS011;11311;52.192;20.900;2023-08-17T03:43:24;21.17;;;13.20;;
22284;SDS011;11311;52.192;20.900;2023-08-17T03:45:54;16.98;;;12.40;;
22284;SDS011;11311;52.192;20.900;2023-08-17T03:48:23;18.50;;;11.95;;
22284;SDS011;11311;52.192;20.900;2023-08-17T03:50:52;14.55;;;11.50;;
22284;SDS011;11311;52.192;20.900;2023-08-17T03:53:22;25.17;;;12.57;;
22284;SDS011;11311;52.192;20.900;2023-08-17T03:55:52;13.40;;;11.25;;
22284;SDS011;11311;52.192;20.900;2023-08-17T04:00:49;20.80;;;11.95;;
22284;SDS011;11311;52.192;20.900;2023-08-17T04:03:24;14.13;;;12.70;;
22284;SDS011;11311;52.192;20.900;2023-08-17T04:05:54;15.43;;;11.93;;
22284;SDS011;11311;52.192;20.900;2023-08-17T04:08:23;18.63;;;12.45;;
22284;SDS011;11311;52.192;20.900;2023-08-17T04:10:53;18.20;;;11.15;;
22284;SDS011;11311;52.192;20.900;2023-08-17T04:13:22;12.90;;;11.70;;
22284;SDS011;11311;52.192;20.900;2023-08-17T04:15:52;20.13;;;11.23;;
22284;SDS011;11311;52.192;20.900;2023-08-17T04:18:21;14.77;;;11.60;;
22284;SDS011;11311;52.192;20.900;2023-08-17T04:20:50;14.95;;;11.05;;
22284;SDS011;11311;52.192;20.900;2023-08-17T04:23:21;13.40;;;10.75;;
22284;SDS011;11311;52.192;20.900;2023-08-17T04:25:50;15.15;;;10.73;;
22284;SDS011;11311;52.192;20.900;2023-08-17T04:28:20;14.20;;;10.73;;
22284;SDS011;11311;52.192;20.900;2023-08-17T04:30:51;19.17;;;12.10;;
22284;SDS011;11311;52.192;20.900;2023-08-17T04:33:20;13.13;;;10.68;;
22284;SDS011;11311;52.192;20.900;2023-08-17T04:35:49;12.00;;;10.20;;
22284;SDS011;11311;52.192;20.900;2023-08-17T04:38:18;12.98;;;10.57;;
22284;SDS011;11311;52.192;20.900;2023-08-17T04:40:47;14.75;;;10.30;;
22284;SDS011;11311;52.192;20.900;2023-08-17T04:43:16;12.25;;;11.00;;
22284;SDS011;11311;52.192;20.900;2023-08-17T04:45:46;17.95;;;10.00;;
22284;SDS011;11311;52.192;20.900;2023-08-17T04:48:16;13.32;;;10.82;;
22284;SDS011;11311;52.192;20.900;2023-08-17T04:50:46;10.77;;;9.77;;
22284;SDS011;11311;52.192;20.900;2023-08-17T04:53:15;19.30;;;10.63;;
22284;SDS011;11311;52.192;20.900;2023-08-17T04:55:44;14.00;;;10.30;;
22284;SDS011;11311;52.192;20.900;2023-08-17T04:58:13;11.63;;;9.95;;
22284;SDS011;11311;52.192;20.900;2023-08-17T05:00:42;17.85;;;10.60;;
22284;SDS011;11311;52.192;20.900;2023-08-17T05:03:13;12.68;;;10.88;;
22284;SDS011;11311;52.192;20.900;2023-08-17T05:05:58;18.10;;;11.75;;
22284;SDS011;11311;52.192;20.900;2023-08-17T05:08:27;17.25;;;11.98;;
22284;SDS011;11311;52.192;20.900;2023-08-17T05:10:56;12.57;;;10.80;;
22284;SDS011;11311;52.192;20.900;2023-08-17T05:13:25;18.42;;;10.25;;
22284;SDS011;11311;52.192;20.900;2023-08-17T05:15:58;13.75;;;10.35;;
22284;SDS011;11311;52.192;20.900;2023-08-17T05:20:58;10.93;;;9.43;;
22284;SDS011;11311;52.192;20.900;2023-08-17T05:23:27;21.45;;;11.15;;
22284;SDS011;11311;52.192;20.900;2023-08-17T05:25:56;12.13;;;10.85;;
22284;SDS011;11311;52.192;20.900;2023-08-17T05:28:25;13.90;;;10.15;;
22284;SDS011;11311;52.192;20.900;2023-08-17T05:30:54;11.20;;;10.10;;
22284;SDS011;11311;52.192;20.900;2023-08-17T05:33:24;13.20;;;9.18;;
22284;SDS011;11311;52.192;20.900;2023-08-17T05:35:54;17.98;;;10.18;;
22284;SDS011;11311;52.192;20.900;2023-08-17T05:38:24;19.55;;;9.88;;
22284;SDS011;11311;52.192;20.900;2023-08-17T05:40:54;17.05;;;9.27;;
22284;SDS011;11311;52.192;20.900;2023-08-17T05:43:23;11.65;;;8.82;;
22284;SDS011;11311;52.192;20.900;2023-08-17T05:45:53;16.85;;;8.55;;
22284;SDS011;11311;52.192;20.900;2023-08-17T05:48:25;9.65;;;7.45;;
22284;SDS011;11311;52.192;20.900;2023-08-17T05:50:56;9.03;;;8.13;;
22284;SDS011;11311;52.192;20.900;2023-08-17T05:53:25;13.10;;;8.07;;
22284;SDS011;11311;52.192;20.900;2023-08-17T05:55:53;11.57;;;8.63;;
22284;SDS011;11311;52.192;20.900;2023-08-17T05:58:22;12.30;;;9.43;;
22284;SDS011;11311;52.192;20.900;2023-08-17T06:00:51;13.02;;;7.93;;
22284;SDS011;11311;52.192;20.900;2023-08-17T06:03:20;11.40;;;7.78;;
22284;SDS011;11311;52.192;20.900;2023-08-17T06:05:52;15.10;;;8.70;;
22284;SDS011;11311;52.192;20.900;2023-08-17T06:08:22;15.45;;;7.47;;
22284;SDS011;11311;52.192;20.900;2023-08-17T06:10:50;12.55;;;8.07;;
22284;SDS011;11311;52.192;20.900;2023-08-17T06:13:19;8.52;;;7.25;;
22284;SDS011;11311;52.192;20.900;2023-08-17T06:15:48;10.98;;;8.35;;
22284;SDS011;11311;52.192;20.900;2023-08-17T06:18:17;17.10;;;8.57;;
22284;SDS011;11311;52.192;20.900;2023-08-17T06:20:48;17.52;;;9.15;;
22284;SDS011;11311;52.192;20.900;2023-08-17T06:23:19;13.70;;;8.63;;
22284;SDS011;11311;52.192;20.900;2023-08-17T06:25:49;12.23;;;8.77;;
22284;SDS011;11311;52.192;20.900;2023-08-17T06:28:18;17.25;;;8.70;;
22284;SDS011;11311;52.192;20.900;2023-08-17T06:30:49;15.32;;;9.32;;
22284;SDS011;11311;52.192;20.900;2023-08-17T06:33:20;13.52;;;9.45;;
22284;SDS011;11311;52.192;20.900;2023-08-17T06:35:49;16.92;;;8.70;;
22284;SDS011;11311;52.192;20.900;2023-08-17T06:38:18;15.27;;;7.80;;
22284;SDS011;11311;52.192;20.900;2023-08-17T06:40:46;16.38;;;8.82;;
22284;SDS011;11311;52.192;20.900;2023-08-17T06:43:17;20.85;;;8.93;;
22284;SDS011;11311;52.192;20.900;2023-08-17T06:45:46;11.65;;;8.43;;
22284;SDS011;11311;52.192;20.900;2023-08-17T06:48:15;13.65;;;8.75;;
22284;SDS011;11311;52.192;20.900;2023-08-17T06:50:44;15.73;;;9.15;;
22284;SDS011;11311;52.192;20.900;2023-08-17T06:53:12;14.65;;;8.32;;
22284;SDS011;11311;52.192;20.900;2023-08-17T06:55:41;8.52;;;7.63;;
22284;SDS011;11311;52.192;20.900;2023-08-17T06:58:11;11.77;;;7.88;;
22284;SDS011;11311;52.192;20.900;2023-08-17T07:00:41;11.20;;;7.82;;
22284;SDS011;11311;52.192;20.900;2023-08-17T07:03:11;16.65;;;7.50;;
22284;SDS011;11311;52.192;20.900;2023-08-17T07:05:39;11.05;;;7.72;;
22284;SDS011;11311;52.192;20.900;2023-08-17T07:08:08;8.55;;;7.40;;
22284;SDS011;11311;52.192;20.900;2023-08-17T07:10:37;8.88;;;7.97;;
22284;SDS011;11311;52.192;20.900;2023-08-17T07:13:06;13.68;;;8.07;;
22284;SDS011;11311;52.192;20.900;2023-08-17T07:15:37;14.73;;;8.15;;
22284;SDS011;11311;52.192;20.900;2023-08-17T07:18:06;11.35;;;7.85;;
22284;SDS011;11311;52.192;20.900;2023-08-17T07:20:35;8.50;;;7.55;;
22284;SDS011;11311;52.192;20.900;2023-08-17T07:23:04;12.57;;;8.18;;
22284;SDS011;11311;52.192;20.900;2023-08-17T07:25:32;9.73;;;8.45;;
22284;SDS011;11311;52.192;20.900;2023-08-17T07:28:01;11.80;;;8.00;;
22284;SDS011;11311;52.192;20.900;2023-08-17T07:30:30;15.90;;;8.93;;
22284;SDS011;11311;52.192;20.900;2023-08-17T07:33:00;11.18;;;8.77;;
22284;SDS011;11311;52.192;20.900;2023-08-17T07:35:29;10.15;;;8.90;;
22284;SDS011;11311;52.192;20.900;2023-08-17T07:37:58;12.13;;;8.65;;
22284;SDS011;11311;52.192;20.900;2023-08-17T07:40:35;13.38;;;8.05;;
22284;SDS011;11311;52.192;20.900;2023-08-17T07:43:04;9.23;;;7.78;;
22284;SDS011;11311;52.192;20.900;2023-08-17T07:45:33;14.70;;;8.68;;
22284;SDS011;11311;52.192;20.900;2023-08-17T07:48:03;10.45;;;8.02;;
22284;SDS011;11311;52.192;20.900;2023-08-17T07:50:33;8.80;;;8.00;;
22284;SDS011;11311;52.192;20.900;2023-08-17T07:53:02;10.80;;;8.68;;
22284;SDS011;11311;52.192;20.900;2023-08-17T07:55:30;10.48;;;8.15;;
22284;SDS011;11311;52.192;20.900;2023-08-17T07:57:59;13.52;;;8.18;;
22284;SDS011;11311;52.192;20.900;2023-08-17T08:00:28;10.82;;;8.32;;
22284;SDS011;11311;52.192;20.900;2023-08-17T08:02:57;13.90;;;8.10;;
22284;SDS011;11311;52.192;20.900;2023-08-17T08:05:27;10.85;;;8.68;;
22284;SDS011;11311;52.192;20.900;2023-08-17T08:07:56;16.95;;;7.65;;
22284;SDS011;11311;52.192;20.900;2023-08-17T08:10:24;9.95;;;6.95;;
22284;SDS011;11311;52.192;20.900;2023-08-17T08:12:53;11.95;;;7.28;;
22284;SDS011;11311;52.192;20.900;2023-08-17T08:15:22;16.52;;;8.73;;
22284;SDS011;11311;52.192;20.900;2023-08-17T08:17:53;15.55;;;8.43;;
22284;SDS011;11311;52.192;20.900;2023-08-17T08:20:21;11.15;;;8.15;;
22284;SDS011;11311;52.192;20.900;2023-08-17T08:22:51;19.50;;;7.95;;
22284;SDS011;11311;52.192;20.900;2023-08-17T08:25:20;9.93;;;8.15;;
22284;SDS011;11311;52.192;20.900;2023-08-17T08:27:49;13.60;;;7.78;;
22284;SDS011;11311;52.192;20.900;2023-08-17T08:30:18;10.07;;;8.18;;
22284;SDS011;11311;52.192;20.900;2023-08-17T08:32:47;16.27;;;8.27;;
22284;SDS011;11311;52.192;20.900;2023-08-17T08:35:16;12.00;;;8.13;;
22284;SDS011;11311;52.192;20.900;2023-08-17T08:37:45;8.93;;;8.02;;
22284;SDS011;11311;52.192;20.900;2023-08-17T08:40:15;10.45;;;7.10;;
22284;SDS011;11311;52.192;20.900;2023-08-17T08:42:45;14.57;;;8.10;;
22284;SDS011;11311;52.192;20.900;2023-08-17T08:45:14;13.05;;;8.57;;
22284;SDS011;11311;52.192;20.900;2023-08-17T08:47:43;17.80;;;9.52;;
22284;SDS011;11311;52.192;20.900;2023-08-17T08:50:15;16.05;;;8.32;;
22284;SDS011;11311;52.192;20.900;2023-08-17T08:52:49;15.32;;;8.68;;
22284;SDS011;11311;52.192;20.900;2023-08-17T08:55:25;15.13;;;9.02;;
22284;SDS011;11311;52.192;20.900;2023-08-17T08:57:57;20.70;;;8.77;;
22284;SDS011;11311;52.192;20.900;2023-08-17T09:00:27;14.77;;;9.15;;
22284;SDS011;11311;52.192;20.900;2023-08-17T09:02:56;14.48;;;8.55;;
22284;SDS011;11311;52.192;20.900;2023-08-17T09:05:26;11.30;;;9.30;;
22284;SDS011;11311;52.192;20.900;2023-08-17T09:07:55;10.70;;;8.25;;
22284;SDS011;11311;52.192;20.900;2023-08-17T09:10:27;43.08;;;10.60;;
22284;SDS011;11311;52.192;20.900;2023-08-17T09:13:04;11.32;;;8.10;;
22284;SDS011;11311;52.192;20.900;2023-08-17T09:15:32;12.38;;;7.72;;
22284;SDS011;11311;52.192;20.900;2023-08-17T09:18:01;18.50;;;8.38;;
22284;SDS011;11311;52.192;20.900;2023-08-17T09:20:37;9.15;;;8.00;;
22284;SDS011;11311;52.192;20.900;2023-08-17T09:23:14;10.73;;;7.65;;
22284;SDS011;11311;52.192;20.900;2023-08-17T09:25:48;10.20;;;7.32;;
22284;SDS011;11311;52.192;20.900;2023-08-17T09:28:19;14.68;;;7.57;;
22284;SDS011;11311;52.192;20.900;2023-08-17T09:30:58;8.38;;;7.15;;
22284;SDS011;11311;52.192;20.900;2023-08-17T09:33:29;10.90;;;7.47;;
22284;SDS011;11311;52.192;20.900;2023-08-17T09:35:59;8.02;;;7.32;;
22284;SDS011;11311;52.192;20.900;2023-08-17T09:38:28;13.60;;;7.72;;
22284;SDS011;11311;52.192;20.900;2023-08-17T09:40:59;11.43;;;7.55;;
22284;SDS011;11311;52.192;20.900;2023-08-17T09:43:28;13.85;;;7.35;;
22284;SDS011;11311;52.192;20.900;2023-08-17T09:46:00;7.43;;;6.35;;
22284;SDS011;11311;52.192;20.900;2023-08-17T09:48:30;7.72;;;6.40;;
22284;SDS011;11311;52.192;20.900;2023-08-17T09:51:00;11.30;;;6.82;;
22284;SDS011;11311;52.192;20.900;2023-08-17T09:56:04;7.00;;;6.30;;
22284;SDS011;11311;52.192;20.900;2023-08-17T09:58:34;7.75;;;6.30;;
22284;SDS011;11311;52.192;20.900;2023-08-17T10:01:03;8.67;;;6.50;;
22284;SDS011;11311;52.192;20.900;2023-08-17T10:03:33;7.60;;;6.10;;
22284;SDS011;11311;52.192;20.900;2023-08-17T10:08:33;9.23;;;5.28;;
22284;SDS011;11311;52.192;20.900;2023-08-17T10:11:09;6.40;;;4.70;;
22284;SDS011;11311;52.192;20.900;2023-08-17T10:13:42;10.85;;;5.30;;
22284;SDS011;11311;52.192;20.900;2023-08-17T10:16:17;13.88;;;6.03;;
22284;SDS011;11311;52.192;20.900;2023-08-17T10:18:58;8.43;;;5.40;;
22284;SDS011;11311;52.192;20.900;2023-08-17T10:21:35;5.32;;;4.72;;
22284;SDS011;11311;52.192;20.900;2023-08-17T10:24:07;7.35;;;4.93;;
22284;SDS011;11311;52.192;20.900;2023-08-17T10:26:38;7.50;;;5.05;;
22284;SDS011;11311;52.192;20.900;2023-08-17T10:29:08;6.28;;;4.93;;
22284;SDS011;11311;52.192;20.900;2023-08-17T10:31:43;6.40;;;4.07;;
22284;SDS011;11311;52.192;20.900;2023-08-17T10:34:14;8.10;;;4.10;;
22284;SDS011;11311;52.192;20.900;2023-08-17T10:36:43;6.78;;;4.30;;
22284;SDS011;11311;52.192;20.900;2023-08-17T10:39:20;4.93;;;4.00;;
22284;SDS011;11311;52.192;20.900;2023-08-17T10:41:57;4.30;;;3.55;;
22284;SDS011;11311;52.192;20.900;2023-08-17T10:44:38;6.10;;;4.43;;
22284;SDS011;11311;52.192;20.900;2023-08-17T10:47:21;8.13;;;3.90;;
22284;SDS011;11311;52.192;20.900;2023-08-17T10:49:51;5.90;;;3.80;;
22284;SDS011;11311;52.192;20.900;2023-08-17T10:52:27;8.40;;;4.15;;
22284;SDS011;11311;52.192;20.900;2023-08-17T10:54:59;4.25;;;3.75;;
22284;SDS011;11311;52.192;20.900;2023-08-17T10:57:33;10.30;;;3.05;;
22284;SDS011;11311;52.192;20.900;2023-08-17T11:00:06;8.52;;;3.28;;
22284;SDS011;11311;52.192;20.900;2023-08-17T11:02:51;6.60;;;3.45;;
22284;SDS011;11311;52.192;20.900;2023-08-17T11:05:34;8.88;;;3.42;;
22284;SDS011;11311;52.192;20.900;2023-08-17T11:08:04;3.83;;;2.80;;
22284;SDS011;11311;52.192;20.900;2023-08-17T11:13:04;5.03;;;2.60;;
22284;SDS011;11311;52.192;20.900;2023-08-17T11:15:34;7.15;;;2.72;;
22284;SDS011;11311;52.192;20.900;2023-08-17T11:18:08;3.42;;;2.67;;
22284;SDS011;11311;52.192;20.900;2023-08-17T11:20:38;5.40;;;3.10;;
22284;SDS011;11311;52.192;20.900;2023-08-17T11:23:11;3.90;;;2.70;;
22284;SDS011;11311;52.192;20.900;2023-08-17T11:25:41;4.85;;;2.75;;
22284;SDS011;11311;52.192;20.900;2023-08-17T11:28:13;2.88;;;2.30;;
22284;SDS011;11311;52.192;20.900;2023-08-17T11:30:42;4.40;;;2.22;;
22284;SDS011;11311;52.192;20.900;2023-08-17T11:33:14;7.18;;;2.88;;
22284;SDS011;11311;52.192;20.900;2023-08-17T11:35:43;3.72;;;2.42;;
22284;SDS011;11311;52.192;20.900;2023-08-17T11:38:12;4.85;;;2.70;;
22284;SDS011;11311;52.192;20.900;2023-08-17T11:40:41;3.30;;;2.55;;
22284;SDS011;11311;52.192;20.900;2023-08-17T11:43:11;3.72;;;2.53;;
22284;SDS011;11311;52.192;20.900;2023-08-17T11:45:41;2.80;;;2.42;;
22284;SDS011;11311;52.192;20.900;2023-08-17T11:48:11;6.45;;;2.53;;
22284;SDS011;11311;52.192;20.900;2023-08-17T11:50:40;5.30;;;2.55;;
22284;SDS011;11311;52.192;20.900;2023-08-17T11:53:09;5.57;;;2.60;;
22284;SDS011;11311;52.192;20.900;2023-08-17T11:55:37;6.63;;;2.53;;
22284;SDS011;11311;52.192;20.900;2023-08-17T11:58:06;5.18;;;2.55;;
22284;SDS011;11311;52.192;20.900;2023-08-17T12:00:39;7.82;;;2.85;;
22284;SDS011;11311;52.192;20.900;2023-08-17T12:03:14;6.72;;;2.60;;
22284;SDS011;11311;52.192;20.900;2023-08-17T12:05:44;2.97;;;1.83;;
22284;SDS011;11311;52.192;20.900;2023-08-17T12:08:13;4.70;;;2.78;;
22284;SDS011;11311;52.192;20.900;2023-08-17T12:10:42;6.10;;;2.97;;
22284;SDS011;11311;52.192;20.900;2023-08-17T12:13:13;6.43;;;2.95;;
22284;SDS011;11311;52.192;20.900;2023-08-17T12:15:43;3.22;;;2.50;;
22284;SDS011;11311;52.192;20.900;2023-08-17T12:18:13;5.25;;;2.35;;
22284;SDS011;11311;52.192;20.900;2023-08-17T12:20:44;2.40;;;2.20;;
22284;SDS011;11311;52.192;20.900;2023-08-17T12:23:20;5.47;;;2.42;;
22284;SDS011;11311;52.192;20.900;2023-08-17T12:25:52;4.30;;;2.30;;
22284;SDS011;11311;52.192;20.900;2023-08-17T12:28:22;3.22;;;2.08;;
22284;SDS011;11311;52.192;20.900;2023-08-17T12:31:00;2.40;;;1.88;;
22284;SDS011;11311;52.192;20.900;2023-08-17T12:33:30;5.65;;;2.50;;
22284;SDS011;11311;52.192;20.900;2023-08-17T12:36:00;5.35;;;2.17;;
22284;SDS011;11311;52.192;20.900;2023-08-17T12:38:29;6.03;;;2.25;;
22284;SDS011;11311;52.192;20.900;2023-08-17T12:40:58;3.77;;;2.53;;
22284;SDS011;11311;52.192;20.900;2023-08-17T12:43:31;3.80;;;2.38;;
22284;SDS011;11311;52.192;20.900;2023-08-17T12:46:02;4.88;;;2.35;;
22284;SDS011;11311;52.192;20.900;2023-08-17T12:48:31;7.40;;;2.28;;
22284;SDS011;11311;52.192;20.900;2023-08-17T12:51:02;4.70;;;2.13;;
22284;SDS011;11311;52.192;20.900;2023-08-17T12:53:31;5.38;;;2.45;;
22284;SDS011;11311;52.192;20.900;2023-08-17T12:56:02;3.30;;;2.20;;
22284;SDS011;11311;52.192;20.900;2023-08-17T12:58:30;4.33;;;1.63;;
22284;SDS011;11311;52.192;20.900;2023-08-17T13:00:59;11.10;;;2.50;;
22284;SDS011;11311;52.192;20.900;2023-08-17T13:03:30;2.13;;;1.92;;
22284;SDS011;11311;52.192;20.900;2023-08-17T13:06:00;3.33;;;2.38;;
22284;SDS011;11311;52.192;20.900;2023-08-17T13:08:30;5.72;;;2.17;;
22284;SDS011;11311;52.192;20.900;2023-08-17T13:10:59;6.97;;;2.67;;
22284;SDS011;11311;52.192;20.900;2023-08-17T13:13:28;3.42;;;2.50;;
22284;SDS011;11311;52.192;20.900;2023-08-17T13:15:57;3.60;;;2.60;;
22284;SDS011;11311;52.192;20.900;2023-08-17T13:18:25;4.68;;;1.85;;
22284;SDS011;11311;52.192;20.900;2023-08-17T13:20:57;5.85;;;2.33;;
22284;SDS011;11311;52.192;20.900;2023-08-17T13:23:26;6.00;;;3.00;;
22284;SDS011;11311;52.192;20.900;2023-08-17T13:25:55;9.52;;;2.85;;
22284;SDS011;11311;52.192;20.900;2023-08-17T13:28:23;5.90;;;2.47;;
22284;SDS011;11311;52.192;20.900;2023-08-17T13:30:52;5.60;;;3.43;;
22284;SDS011;11311;52.192;20.900;2023-08-17T13:33:21;6.40;;;2.43;;
22284;SDS011;11311;52.192;20.900;2023-08-17T13:35:50;6.15;;;2.97;;
22284;SDS011;11311;52.192;20.900;2023-08-17T13:38:20;6.85;;;2.65;;
22284;SDS011;11311;52.192;20.900;2023-08-17T13:40:49;8.10;;;3.38;;
22284;SDS011;11311;52.192;20.900;2023-08-17T13:43:18;2.97;;;2.28;;
22284;SDS011;11311;52.192;20.900;2023-08-17T13:45:46;5.50;;;2.53;;
22284;SDS011;11311;52.192;20.900;2023-08-17T13:48:15;7.50;;;3.45;;
22284;SDS011;11311;52.192;20.900;2023-08-17T13:50:44;5.83;;;3.13;;
22284;SDS011;11311;52.192;20.900;2023-08-17T13:53:13;5.40;;;3.08;;
22284;SDS011;11311;52.192;20.900;2023-08-17T13:55:43;7.97;;;3.20;;
22284;SDS011;11311;52.192;20.900;2023-08-17T13:58:12;6.13;;;2.38;;
22284;SDS011;11311;52.192;20.900;2023-08-17T14:00:42;5.78;;;2.70;;
22284;SDS011;11311;52.192;20.900;2023-08-17T14:03:11;7.13;;;3.80;;
22284;SDS011;11311;52.192;20.900;2023-08-17T14:05:40;4.25;;;2.67;;
22284;SDS011;11311;52.192;20.900;2023-08-17T14:08:11;6.38;;;3.55;;
22284;SDS011;11311;52.192;20.900;2023-08-17T14:10:39;5.05;;;3.17;;
22284;SDS011;11311;52.192;20.900;2023-08-17T14:13:09;3.93;;;2.70;;
22284;SDS011;11311;52.192;20.900;2023-08-17T14:15:38;5.30;;;3.13;;
22284;SDS011;11311;52.192;20.900;2023-08-17T14:18:07;4.70;;;3.10;;
22284;SDS011;11311;52.192;20.900;2023-08-17T14:20:36;8.02;;;3.35;;
22284;SDS011;11311;52.192;20.900;2023-08-17T14:23:05;7.33;;;3.60;;
22284;SDS011;11311;52.192;20.900;2023-08-17T14:25:33;4.00;;;2.72;;
22284;SDS011;11311;52.192;20.900;2023-08-17T14:28:03;6.10;;;3.05;;
22284;SDS011;11311;52.192;20.900;2023-08-17T14:30:35;4.32;;;3.30;;
22284;SDS011;11311;52.192;20.900;2023-08-17T14:33:04;5.13;;;2.97;;
22284;SDS011;11311;52.192;20.900;2023-08-17T14:35:33;5.88;;;3.30;;
22284;SDS011;11311;52.192;20.900;2023-08-17T14:38:02;12.07;;;3.43;;
22284;SDS011;11311;52.192;20.900;2023-08-17T14:40:32;11.52;;;3.72;;
22284;SDS011;11311;52.192;20.900;2023-08-17T14:43:01;3.53;;;3.20;;
22284;SDS011;11311;52.192;20.900;2023-08-17T14:45:29;11.87;;;3.30;;
22284;SDS011;11311;52.192;20.900;2023-08-17T14:48:00;4.97;;;2.95;;
22284;SDS011;11311;52.192;20.900;2023-08-17T14:50:29;5.43;;;3.28;;
22284;SDS011;11311;52.192;20.900;2023-08-17T14:52:58;4.85;;;3.15;;
22284;SDS011;11311;52.192;20.900;2023-08-17T14:55:29;5.03;;;3.42;;